Acton, Texas
Current Conditions -  °F | °C
As of 9:35 AM on Friday 19 Dec 2014 (Local Time) from KGDJ Reporting Station
Overcast Overcast  
Wind Chill: 43°   Ceiling: 700
Heat Index: 47°   Visibility: 7mi
Dew Point: 44°   Wind: 7mph
Humidity: 90%   Direction: 360°N
Pressure: 30.22"   Gusts: NA
Location:  32.4693°N, 97.7085°W
Report Text: KGDJ 191535Z AUTO 36006KT 7SM OVC007 08/07 A3022 RMK AO2 T00810066
Loading
Personal Weather Stations






























Interactive Weather Map New forecast layout! Learn more

10-Day Weather Forecast

Advertisements
Track Severe Weather on mobile